NCAR-RAP Real-Time Weather Data

Output produced by METARs form (16 August 2018  19:23 UTC)
found at http://weather.rap.ucar.edu/surface/
 
RJOM 161200Z 34003KT 280V010 9999 FEW030 SCT130 BKN/// 26/25 Q1009
RJOM 161100Z VRB01KT 9999 FEW030 SCT070 BKN120 27/25 Q1009
RJOM 161000Z 36004KT 9999 -SHRA FEW015 SCT025 BKN060 26/25 Q1009
RJOM 160900Z 36008KT 9999 FEW007 SCT025 BKN060 27/25 Q1008
RJOM 160800Z 31005KT 9999 -SHRA FEW015 FEW030CB SCT035 BKN060 28/25 Q1008
RJOM 160700Z 34006KT 9999 FEW006 FEW030CB BKN110 BKN/// 28/25 Q1008
RJOM 160600Z 33008KT 9999 FEW025 FEW030CB BKN110 BKN/// 28/25 Q1008
RJOM 160500Z 31008KT 9999 FEW020 FEW025CB SCT100 BKN/// 30/25 Q1008
RJOM 160400Z 32006KT 9999 FEW020 FEW025CB SCT090 BKN/// 28/24 Q1008
RJOM 160300Z 31006KT 9999 FEW020 SCT090 BKN/// 30/26 Q1009
RJOM 160200Z 17004KT 110V240 9999 FEW020 SCT070 BKN100 30/26 Q1009
RJOM 160100Z 12007KT 9999 -SHRA FEW015 SCT025 BKN080 29/27 Q1009
RJOM 160000Z VRB02KT 9999 FEW005 SCT020 BKN050 27/26 Q1009
RJOM 152341Z 01003KT 320V070 9999 -SHRA FEW005 SCT020 BKN040 26/25 Q1009 RMK 1ST005 3CU020 5CU040 A2981
RJOM 152323Z 33005KT 5000 R14/2000U SHRA BR FEW005 SCT010 BKN035 25/24 Q1009 RMK 1ST005 3ST010 5CU035 A2982
RJOM 152318Z 34004KT 2000 R14/1900D +SHRA BR FEW005 SCT010 BKN035 25/25 Q1009 RMK 1ST005 4ST010 5CU035 A2982
RJOM 152314Z 35005KT 4500 R14/2000N +SHRA BR FEW005 SCT010 BKN035 26/25 Q1009 RMK 1ST005 4ST010 5CU035 A2982
RJOM 152300Z 01003KT 320V020 9999 VCSH FEW005 SCT040 BKN070 27/25 Q1009
RJOM 152200Z 36005KT 9999 FEW020 SCT040 BKN060 25/25 Q1008
RJOM 152110Z 02004KT 9999 FEW020 SCT060 BKN/// 26/25 Q1008 RMK 1CU020 3SC060 A2978
RJOM 151200Z VRB02KT 9999 FEW010 SCT060 BKN140 27/27 Q1010
RJOM 151100Z 08003KT 030V140 9999 -SHRA FEW010 SCT030 BKN120 27/26 Q1009
RJOM 151000Z 01005KT 9999 -SHRA FEW010 SCT030 BKN100 27/26 Q1009
RJOM 150900Z 36004KT 330V030 9999 FEW006 SCT030 BKN120 27/26 Q1009
RJOM 150800Z 33004KT 310V020 9999 -SHRA FEW006 SCT025 BKN070 26/25 Q1009
RJOM 150700Z 01006KT 9999 -SHRA FEW006 SCT025 BKN040 27/26 Q1009
RJOM 150600Z 01006KT 9999 VCSH FEW010 SCT025 BKN070 29/26 Q1009
RJOM 150500Z 01007KT 9999 FEW010 SCT025 BKN040 29/26 Q1009
RJOM 150400Z 36008KT 9999 -SHRA FEW005 SCT030 BKN050 27/26 Q1010
RJOM 150310Z 01008KT 9999 -SHRA FEW006 SCT030 BKN050 26/26 Q1009 RMK 1ST006 4CU030 5SC050 A2982
RJOM 150300Z 01008KT 9999 SHRA FEW006 SCT030 BKN050 26/26 Q1010
RJOM 150218Z 36005KT 7000 SHRA FEW020 FEW025CB SCT030 BKN050 26/25 Q1010 RMK 1CU020 1CB025 4CU030 5SC050 A2984 CB S
RJOM 150200Z 01003KT 320V070 8000 -SHRA FEW020 FEW025CB SCT030 BKN050 27/26 Q1010
RJOM 150100Z 35005KT 9999 FEW020 SCT035 BKN050 26/25 Q1009
RJOM 150000Z 01003KT 9999 VCSH FEW020 FEW025CB SCT035 BKN050 28/26 Q1009
RJOM 142300Z 13004KT 9999 FEW020 FEW025CB SCT035 BKN050 27/25 Q1010
RJOM 142200Z 09006KT 060V130 9999 FEW020 SCT035 BKN050 27/25 Q1010
RJOM 142110Z 03004KT 340V090 9999 FEW020 SCT050 BKN180 28/25 Q1009 RMK 1CU020 4SC050 5AC180 A2980
RJOM 141200Z 31003KT 250V350 9999 FEW030 BKN/// 27/24 Q1009
RJOM 141100Z VRB02KT 9999 FEW030 BKN/// 27/24 Q1009
RJOM 141000Z 27004KT 240V300 9999 FEW025 BKN/// 27/24 Q1009
RJOM 140900Z 25006KT 9999 FEW025 BKN/// 28/25 Q1009
RJOM 140800Z 26007KT 200V280 9999 FEW025 SCT/// 30/25 Q1009